createdAt,value
2022-11-30T00:01:24.567Z,5.30
2022-11-30T00:03:56.328Z,5.30
2022-11-30T00:06:24.528Z,5.40
2022-11-30T00:08:56.961Z,5.30
2022-11-30T00:11:26.324Z,5.30
2022-11-30T00:13:56.544Z,5.30
2022-11-30T00:16:23.817Z,5.30
2022-11-30T00:18:51.572Z,5.30
2022-11-30T00:21:18.929Z,5.30
2022-11-30T00:23:47.964Z,5.30
2022-11-30T00:26:17.653Z,5.30
2022-11-30T00:28:46.373Z,5.30
2022-11-30T00:31:15.834Z,5.40
2022-11-30T00:33:43.542Z,5.30
2022-11-30T00:36:16.337Z,5.40
2022-11-30T00:38:43.866Z,5.30
2022-11-30T00:41:11.548Z,5.30
2022-11-30T00:43:38.970Z,5.40
2022-11-30T00:46:06.632Z,5.40
2022-11-30T00:48:33.840Z,5.40
2022-11-30T00:51:01.158Z,5.40
2022-11-30T00:53:28.359Z,5.40
2022-11-30T00:55:55.538Z,5.40
2022-11-30T00:58:23.133Z,5.40
2022-11-30T01:00:50.346Z,5.30
2022-11-30T01:03:17.818Z,5.40
2022-11-30T01:05:45.716Z,5.40
2022-11-30T01:08:13.856Z,5.40
2022-11-30T01:10:43.514Z,5.40
2022-11-30T01:13:13.052Z,5.40
2022-11-30T01:15:45.039Z,5.40
2022-11-30T01:18:12.820Z,5.40
2022-11-30T01:20:43.824Z,5.40
2022-11-30T01:23:11.568Z,5.30
2022-11-30T01:25:39.202Z,5.30
2022-11-30T01:28:06.713Z,5.30
2022-11-30T01:30:34.029Z,5.30
2022-11-30T01:33:05.971Z,5.30
2022-11-30T01:35:33.439Z,5.30
2022-11-30T01:38:00.755Z,5.30
2022-11-30T01:40:28.012Z,5.30
2022-11-30T01:42:55.412Z,5.30
2022-11-30T01:45:22.719Z,5.30
2022-11-30T01:47:54.864Z,5.30
2022-11-30T01:50:34.978Z,5.30
2022-11-30T01:53:06.119Z,5.30
2022-11-30T01:55:38.138Z,5.30
2022-11-30T01:58:12.868Z,5.30
2022-11-30T02:00:44.192Z,5.30
2022-11-30T02:03:18.683Z,5.30
2022-11-30T02:05:46.743Z,5.40
2022-11-30T02:08:14.468Z,5.40
2022-11-30T02:10:47.747Z,5.40
2022-11-30T02:13:20.674Z,5.40
2022-11-30T02:16:05.634Z,5.40
2022-11-30T02:19:02.287Z,5.40
2022-11-30T02:21:59.886Z,5.40
2022-11-30T02:24:54.249Z,5.30
2022-11-30T02:27:56.136Z,5.30
2022-11-30T02:30:24.409Z,5.40
2022-11-30T02:33:03.000Z,5.40
2022-11-30T02:39:20.127Z,5.30
2022-11-30T02:41:47.346Z,5.30
2022-11-30T02:44:15.463Z,5.30
2022-11-30T02:47:01.120Z,5.30
2022-11-30T02:49:38.642Z,5.30
2022-11-30T02:52:08.358Z,5.30
2022-11-30T02:54:35.607Z,5.30
2022-11-30T02:57:02.801Z,5.30
2022-11-30T02:59:30.288Z,5.30
2022-11-30T03:01:57.856Z,5.30
2022-11-30T03:04:25.104Z,5.20
2022-11-30T03:06:52.314Z,5.30
2022-11-30T03:09:19.401Z,5.30
2022-11-30T03:11:46.441Z,5.30
2022-11-30T03:14:13.736Z,5.30
2022-11-30T03:16:41.392Z,5.30
2022-11-30T03:19:08.608Z,5.30
2022-11-30T03:21:35.812Z,5.30
2022-11-30T03:24:02.971Z,5.30
2022-11-30T03:26:30.094Z,5.30
2022-11-30T03:28:57.272Z,5.30
2022-11-30T03:31:24.358Z,5.30
2022-11-30T03:33:51.479Z,5.30
2022-11-30T03:36:18.571Z,5.30
2022-11-30T03:38:47.797Z,5.30
2022-11-30T03:41:17.198Z,5.30
2022-11-30T03:43:45.454Z,5.30
2022-11-30T03:46:13.376Z,5.30
2022-11-30T03:48:43.837Z,5.30
2022-11-30T03:51:12.781Z,5.30
2022-11-30T03:53:40.867Z,5.30
2022-11-30T03:56:10.566Z,5.30
2022-11-30T03:58:38.085Z,5.30
2022-11-30T04:01:08.788Z,5.30
2022-11-30T04:03:36.867Z,5.30
2022-11-30T04:06:05.452Z,5.30
2022-11-30T04:08:33.336Z,5.20
2022-11-30T04:11:02.614Z,5.30
2022-11-30T04:13:33.394Z,5.20
2022-11-30T04:16:01.525Z,5.20
2022-11-30T04:18:30.707Z,5.30
2022-11-30T04:20:59.309Z,5.30
2022-11-30T04:23:30.160Z,5.30
2022-11-30T04:25:58.277Z,5.30
2022-11-30T04:28:25.503Z,5.20
2022-11-30T04:30:54.121Z,5.30
2022-11-30T04:33:21.942Z,5.30
2022-11-30T04:35:53.627Z,5.30
2022-11-30T04:38:21.145Z,5.30
2022-11-30T04:40:48.450Z,5.30
2022-11-30T04:43:15.980Z,5.20
2022-11-30T04:45:45.031Z,5.20
2022-11-30T04:48:12.461Z,5.20
2022-11-30T04:50:39.801Z,5.20
2022-11-30T04:53:07.191Z,5.20
2022-11-30T04:55:34.402Z,5.20
2022-11-30T04:58:01.630Z,5.20
2022-11-30T05:00:28.814Z,5.20
2022-11-30T05:02:57.135Z,5.20
2022-11-30T05:05:24.636Z,5.20
2022-11-30T05:07:56.709Z,5.20
2022-11-30T05:10:24.410Z,5.20
2022-11-30T05:12:52.187Z,5.20
2022-11-30T05:15:19.655Z,5.20
2022-11-30T05:17:46.918Z,5.10
2022-11-30T05:20:14.177Z,5.10
2022-11-30T05:22:41.518Z,5.10
2022-11-30T05:25:09.628Z,5.10
2022-11-30T05:27:37.374Z,5.10
2022-11-30T05:30:06.174Z,5.10
2022-11-30T05:32:33.709Z,5.10
2022-11-30T05:35:00.928Z,5.10
2022-11-30T05:37:28.447Z,5.10
2022-11-30T05:39:55.495Z,5.20
2022-11-30T05:42:22.944Z,5.10
2022-11-30T05:44:50.607Z,5.20
2022-11-30T05:47:18.322Z,5.20
2022-11-30T05:49:45.642Z,5.20
2022-11-30T05:52:12.715Z,5.20
2022-11-30T05:54:39.896Z,5.20
2022-11-30T05:57:07.029Z,5.20
2022-11-30T05:59:33.993Z,5.20
2022-11-30T06:02:01.178Z,5.20
2022-11-30T06:04:28.561Z,5.20
2022-11-30T06:06:56.014Z,5.20
2022-11-30T06:09:23.996Z,5.20
2022-11-30T06:11:51.556Z,5.20
2022-11-30T06:14:21.672Z,5.20
2022-11-30T06:16:48.827Z,5.10
2022-11-30T06:19:15.952Z,5.20
2022-11-30T06:21:43.260Z,5.20
2022-11-30T06:24:10.554Z,5.10
2022-11-30T06:26:37.796Z,5.10
2022-11-30T06:29:05.076Z,5.10
2022-11-30T06:31:32.353Z,5.10
2022-11-30T06:33:59.837Z,5.20
2022-11-30T06:36:31.306Z,5.20
2022-11-30T06:39:02.684Z,5.20
2022-11-30T06:41:29.802Z,5.20
2022-11-30T06:43:57.130Z,5.20
2022-11-30T06:46:24.407Z,5.20
2022-11-30T06:48:51.781Z,5.20
2022-11-30T06:51:19.333Z,5.10
2022-11-30T06:53:47.512Z,5.10
2022-11-30T06:56:14.807Z,5.20
2022-11-30T06:58:42.531Z,5.20
2022-11-30T07:01:12.793Z,5.20
2022-11-30T07:03:41.027Z,5.10
2022-11-30T07:06:10.436Z,5.20
2022-11-30T07:08:38.837Z,5.10
2022-11-30T07:11:07.523Z,5.10
2022-11-30T07:13:34.792Z,5.10
2022-11-30T07:16:11.014Z,5.10
2022-11-30T07:18:38.422Z,5.10
2022-11-30T07:21:06.792Z,5.10
2022-11-30T07:23:56.206Z,5.10
2022-11-30T07:26:24.857Z,5.10
2022-11-30T07:28:58.703Z,5.10
2022-11-30T07:31:31.452Z,5.10
2022-11-30T07:33:59.771Z,5.10
2022-11-30T07:36:28.060Z,5.10
2022-11-30T07:38:55.141Z,5.10
2022-11-30T07:41:22.305Z,5.10
2022-11-30T07:43:49.594Z,5.10
2022-11-30T07:46:18.022Z,5.10
2022-11-30T07:48:46.798Z,5.10
2022-11-30T07:51:17.436Z,5.10
2022-11-30T07:53:44.833Z,5.10
2022-11-30T07:56:16.585Z,5.10
2022-11-30T07:58:44.538Z,5.10
2022-11-30T08:01:18.053Z,5.10
2022-11-30T08:03:46.064Z,5.10
2022-11-30T08:06:20.369Z,5.10
2022-11-30T08:08:49.153Z,5.10
2022-11-30T08:11:22.202Z,5.10
2022-11-30T08:13:49.943Z,5.10
2022-11-30T08:16:20.589Z,5.10
2022-11-30T08:18:47.948Z,5.00
2022-11-30T08:21:17.374Z,5.10
2022-11-30T08:23:47.668Z,5.10
2022-11-30T08:26:18.327Z,5.00
2022-11-30T08:28:46.600Z,5.10
2022-11-30T08:31:34.848Z,5.00
2022-11-30T08:34:07.879Z,5.10
2022-11-30T08:36:35.323Z,5.10
2022-11-30T08:39:05.231Z,5.10
2022-11-30T08:41:33.172Z,5.00
2022-11-30T08:44:01.217Z,5.00
2022-11-30T08:46:50.402Z,5.10
2022-11-30T08:52:18.943Z,5.10
2022-11-30T08:54:48.666Z,5.10
2022-11-30T08:57:21.631Z,5.10
2022-11-30T08:59:49.438Z,5.10
2022-11-30T09:02:19.269Z,5.00
2022-11-30T09:04:49.697Z,5.10
2022-11-30T09:07:17.399Z,5.10
2022-11-30T09:09:44.652Z,5.00
2022-11-30T09:12:11.909Z,5.00
2022-11-30T09:14:39.161Z,5.10
2022-11-30T09:17:06.453Z,5.00
2022-11-30T09:19:33.639Z,5.00
2022-11-30T09:22:00.709Z,5.00
2022-11-30T09:24:27.974Z,5.00
2022-11-30T09:26:58.336Z,5.10
2022-11-30T09:29:25.371Z,5.00
2022-11-30T09:31:52.872Z,5.10
2022-11-30T09:34:20.302Z,5.10
2022-11-30T09:36:47.356Z,5.00
2022-11-30T09:39:14.590Z,5.00
2022-11-30T09:42:22.060Z,5.10
2022-11-30T09:45:06.401Z,5.10
2022-11-30T09:47:53.075Z,5.10
2022-11-30T09:50:26.192Z,5.00
2022-11-30T09:52:57.425Z,5.00
2022-11-30T09:55:34.291Z,5.00
2022-11-30T09:58:04.351Z,5.00
2022-11-30T10:00:32.204Z,5.10
2022-11-30T10:03:04.887Z,5.10
2022-11-30T10:05:50.063Z,5.10
2022-11-30T10:08:26.532Z,5.10
2022-11-30T10:11:15.600Z,5.10
2022-11-30T10:14:09.663Z,5.10
2022-11-30T10:16:49.312Z,5.10
2022-11-30T10:19:40.401Z,5.10
2022-11-30T10:22:29.579Z,5.10
2022-11-30T10:25:17.939Z,5.10
2022-11-30T10:27:56.609Z,5.10
2022-11-30T10:30:26.156Z,5.20
2022-11-30T10:32:55.667Z,5.20
2022-11-30T10:35:37.386Z,5.20
2022-11-30T10:38:18.106Z,5.30
2022-11-30T10:40:59.405Z,5.20
2022-11-30T10:43:38.443Z,5.20
2022-11-30T10:46:05.919Z,5.20
2022-11-30T10:48:44.874Z,5.10
2022-11-30T10:51:13.129Z,5.10
2022-11-30T10:53:40.290Z,5.10
2022-11-30T10:56:11.288Z,5.10
2022-11-30T10:58:57.227Z,5.10
2022-11-30T11:01:35.156Z,5.20
2022-11-30T11:04:20.510Z,5.20
2022-11-30T11:06:57.242Z,5.20
2022-11-30T11:09:30.063Z,5.20
2022-11-30T11:12:19.587Z,5.20
2022-11-30T11:14:47.309Z,5.20
2022-11-30T11:17:20.469Z,5.20
2022-11-30T11:19:49.246Z,5.20
2022-11-30T11:22:25.003Z,5.20
2022-11-30T11:24:56.571Z,5.20
2022-11-30T11:27:30.022Z,5.20
2022-11-30T11:30:42.493Z,5.20
2022-11-30T11:33:15.399Z,5.20
2022-11-30T11:35:49.816Z,5.20
2022-11-30T11:38:31.721Z,5.20
2022-11-30T11:41:21.746Z,5.20
2022-11-30T11:44:22.812Z,5.20
2022-11-30T11:47:02.990Z,5.20
2022-11-30T11:49:34.746Z,5.20
2022-11-30T11:52:09.837Z,5.30
2022-11-30T11:54:57.474Z,5.30
2022-11-30T11:57:38.763Z,5.30
2022-11-30T12:00:16.304Z,5.30
2022-11-30T12:03:13.233Z,5.30
2022-11-30T12:05:47.712Z,5.30
2022-11-30T12:08:31.227Z,5.20
2022-11-30T12:11:15.460Z,5.20
2022-11-30T12:13:44.576Z,5.20
2022-11-30T12:16:20.451Z,5.20
2022-11-30T12:19:09.163Z,5.20
2022-11-30T12:21:57.649Z,5.20
2022-11-30T12:24:34.668Z,5.30
2022-11-30T12:27:16.721Z,5.20
2022-11-30T12:30:20.841Z,5.20
2022-11-30T12:33:05.910Z,5.30
2022-11-30T12:35:54.782Z,5.20
2022-11-30T12:38:33.610Z,5.20
2022-11-30T12:41:12.793Z,5.20
2022-11-30T12:44:06.326Z,5.10
2022-11-30T12:46:44.135Z,5.20
2022-11-30T12:49:29.121Z,5.20
2022-11-30T12:52:25.385Z,5.20
2022-11-30T12:55:17.891Z,5.20
2022-11-30T12:58:00.879Z,5.20
2022-11-30T13:00:50.677Z,5.20
2022-11-30T13:03:43.069Z,5.20
2022-11-30T13:06:18.754Z,5.20
2022-11-30T13:08:49.792Z,5.20
2022-11-30T13:11:29.670Z,5.20
2022-11-30T13:14:01.063Z,5.20
2022-11-30T13:16:31.351Z,5.20
2022-11-30T13:19:09.944Z,5.30
2022-11-30T13:21:44.969Z,5.30
2022-11-30T13:24:25.247Z,5.30
2022-11-30T13:26:56.154Z,5.30
2022-11-30T13:30:04.275Z,5.30
2022-11-30T13:32:57.384Z,5.30
2022-11-30T13:35:33.183Z,5.30
2022-11-30T13:41:09.021Z,5.30
2022-11-30T13:43:48.229Z,5.30
2022-11-30T13:46:20.455Z,5.30
2022-11-30T13:48:48.125Z,5.30
2022-11-30T13:51:39.372Z,5.30
2022-11-30T13:54:42.322Z,5.30
2022-11-30T13:57:16.808Z,5.30
2022-11-30T13:59:50.362Z,5.30
2022-11-30T14:02:42.141Z,5.30
2022-11-30T14:05:18.734Z,5.30
2022-11-30T14:08:07.149Z,5.30
2022-11-30T14:10:40.314Z,5.30
2022-11-30T14:13:13.652Z,5.20
2022-11-30T14:15:43.813Z,5.20
2022-11-30T14:18:10.885Z,5.20
2022-11-30T14:20:57.677Z,5.20
2022-11-30T14:23:52.344Z,5.20
2022-11-30T14:26:50.646Z,5.20
2022-11-30T14:29:20.200Z,5.10
2022-11-30T14:32:09.122Z,5.20
2022-11-30T14:34:42.304Z,5.10
2022-11-30T14:37:23.281Z,5.10
2022-11-30T14:39:51.494Z,5.10
2022-11-30T14:42:29.425Z,5.10
2022-11-30T14:44:57.506Z,5.20
2022-11-30T14:47:35.880Z,5.20
2022-11-30T14:50:06.117Z,5.30
2022-11-30T14:53:05.091Z,5.30
2022-11-30T14:55:34.314Z,5.30
2022-11-30T14:58:18.417Z,5.30
2022-11-30T15:00:46.924Z,5.30
2022-11-30T15:03:38.877Z,5.30
2022-11-30T15:06:08.069Z,5.30
2022-11-30T15:08:37.331Z,5.30
2022-11-30T15:11:06.919Z,5.30
2022-11-30T15:13:34.828Z,5.30
2022-11-30T15:16:02.127Z,5.30
2022-11-30T15:18:29.462Z,5.30
2022-11-30T15:21:04.035Z,5.30
2022-11-30T15:23:31.315Z,5.40
2022-11-30T15:26:12.288Z,5.40
2022-11-30T15:28:44.411Z,5.40
2022-11-30T15:31:16.212Z,5.40
2022-11-30T15:33:51.344Z,5.40
2022-11-30T15:36:32.402Z,5.40
2022-11-30T15:39:04.863Z,5.40
2022-11-30T15:41:34.090Z,5.40
2022-11-30T15:44:02.679Z,5.40
2022-11-30T15:46:46.095Z,5.40
2022-11-30T15:49:25.542Z,5.30
2022-11-30T15:52:19.296Z,5.30
2022-11-30T15:54:47.767Z,5.30
2022-11-30T15:57:16.856Z,5.30
2022-11-30T15:59:44.331Z,5.30
2022-11-30T16:02:32.801Z,5.40
2022-11-30T16:05:14.427Z,5.40
2022-11-30T16:08:00.272Z,5.30
2022-11-30T16:10:39.685Z,5.40
2022-11-30T16:13:07.349Z,5.30
2022-11-30T16:15:36.563Z,5.30
2022-11-30T16:18:22.505Z,5.30
2022-11-30T16:20:59.139Z,5.40
2022-11-30T16:23:27.797Z,5.30
2022-11-30T16:25:55.248Z,5.30
2022-11-30T16:28:23.191Z,5.30
2022-11-30T16:30:51.322Z,5.30
2022-11-30T16:33:25.396Z,5.30
2022-11-30T16:35:56.064Z,5.30
2022-11-30T16:38:24.617Z,5.30
2022-11-30T16:40:54.288Z,5.20
2022-11-30T16:43:22.799Z,5.20
2022-11-30T16:45:51.107Z,5.20
2022-11-30T16:48:18.635Z,5.20
2022-11-30T16:50:46.103Z,5.30
2022-11-30T16:53:17.544Z,5.30
2022-11-30T16:55:45.181Z,5.30
2022-11-30T16:58:12.444Z,5.20
2022-11-30T17:00:41.004Z,5.20
2022-11-30T17:03:16.936Z,5.30
2022-11-30T17:05:44.321Z,5.20
2022-11-30T17:08:11.719Z,5.20
2022-11-30T17:10:39.853Z,5.30
2022-11-30T17:13:09.852Z,5.30
2022-11-30T17:15:37.094Z,5.30
2022-11-30T17:18:04.471Z,5.30
2022-11-30T17:20:31.590Z,5.30
2022-11-30T17:22:58.796Z,5.30
2022-11-30T17:25:25.957Z,5.30
2022-11-30T17:27:53.151Z,5.30
2022-11-30T17:30:22.212Z,5.30
2022-11-30T17:32:50.744Z,5.30
2022-11-30T17:35:19.479Z,5.40
2022-11-30T17:37:46.783Z,5.30
2022-11-30T17:40:15.595Z,5.30
2022-11-30T17:42:43.708Z,5.30
2022-11-30T17:45:11.242Z,5.30
2022-11-30T17:47:38.607Z,5.30
2022-11-30T17:50:07.817Z,5.30
2022-11-30T17:52:35.179Z,5.30
2022-11-30T17:55:02.422Z,5.30
2022-11-30T17:57:29.602Z,5.30
2022-11-30T17:59:56.730Z,5.30
2022-11-30T18:02:23.899Z,5.30
2022-11-30T18:04:52.731Z,5.30
2022-11-30T18:07:20.467Z,5.30
2022-11-30T18:09:47.671Z,5.30
2022-11-30T18:12:15.002Z,5.30
2022-11-30T18:14:42.231Z,5.30
2022-11-30T18:17:09.487Z,5.30
2022-11-30T18:19:36.951Z,5.40
2022-11-30T18:22:04.120Z,5.40
2022-11-30T18:24:31.843Z,5.40
2022-11-30T18:27:00.530Z,5.30
2022-11-30T18:29:28.487Z,5.30
2022-11-30T18:31:55.770Z,5.40
2022-11-30T18:34:23.335Z,5.40
2022-11-30T18:36:50.419Z,5.30
2022-11-30T18:39:17.604Z,5.40
2022-11-30T18:41:44.982Z,5.30
2022-11-30T18:44:12.407Z,5.40
2022-11-30T18:46:39.912Z,5.40
2022-11-30T18:49:09.881Z,5.40
2022-11-30T18:51:37.316Z,5.40
2022-11-30T18:54:07.419Z,5.40
2022-11-30T18:56:37.317Z,5.40
2022-11-30T18:59:07.053Z,5.40
2022-11-30T19:01:35.158Z,5.40
2022-11-30T19:04:08.340Z,5.30
2022-11-30T19:06:37.104Z,5.30
2022-11-30T19:09:13.271Z,5.30
2022-11-30T19:11:41.352Z,5.30
2022-11-30T19:14:10.514Z,5.30
2022-11-30T19:16:37.728Z,5.30
2022-11-30T19:19:07.764Z,5.30
2022-11-30T19:21:35.067Z,5.30
2022-11-30T19:24:02.138Z,5.30
2022-11-30T19:26:29.704Z,5.30
2022-11-30T19:28:58.107Z,5.30
2022-11-30T19:31:25.939Z,5.30
2022-11-30T19:33:55.529Z,5.30
2022-11-30T19:36:31.894Z,5.40
2022-11-30T19:39:00.702Z,5.40
2022-11-30T19:41:28.596Z,5.40
2022-11-30T19:44:03.875Z,5.40
2022-11-30T19:46:33.432Z,5.40
2022-11-30T19:49:01.968Z,5.40
2022-11-30T19:51:30.816Z,5.40
2022-11-30T19:53:59.472Z,5.40
2022-11-30T19:56:27.793Z,5.40
2022-11-30T19:59:01.139Z,5.40
2022-11-30T20:01:31.293Z,5.40
2022-11-30T20:03:58.918Z,5.40
2022-11-30T20:06:29.082Z,5.40
2022-11-30T20:08:56.471Z,5.40
2022-11-30T20:11:24.004Z,5.50
2022-11-30T20:13:51.818Z,5.40
2022-11-30T20:16:21.682Z,5.40
2022-11-30T20:18:54.645Z,5.40
2022-11-30T20:21:27.189Z,5.40
2022-11-30T20:23:58.455Z,5.40
2022-11-30T20:26:30.930Z,5.40
2022-11-30T20:28:59.542Z,5.40
2022-11-30T20:31:28.324Z,5.30
2022-11-30T20:33:55.816Z,5.30
2022-11-30T20:36:23.272Z,5.30
2022-11-30T20:38:50.620Z,5.30
2022-11-30T20:41:20.412Z,5.30
2022-11-30T20:43:47.959Z,5.30
2022-11-30T20:46:23.944Z,5.30
2022-11-30T20:48:51.844Z,5.30
2022-11-30T20:51:30.663Z,5.30
2022-11-30T20:54:01.343Z,5.30
2022-11-30T20:56:28.498Z,5.30
2022-11-30T21:17:38.306Z,5.30
2022-11-30T21:20:06.096Z,5.30
2022-11-30T21:22:33.229Z,5.30
2022-11-30T21:25:00.332Z,5.20
2022-11-30T21:27:27.500Z,5.20
2022-11-30T21:29:54.767Z,5.20
2022-11-30T21:32:21.919Z,5.20
2022-11-30T21:34:49.212Z,5.20
2022-11-30T21:37:16.614Z,5.30
2022-11-30T21:39:43.809Z,5.20
2022-11-30T21:42:10.912Z,5.20
2022-11-30T21:44:38.131Z,5.20
2022-11-30T21:47:05.403Z,5.20
2022-11-30T21:49:32.521Z,5.10
2022-11-30T21:51:59.621Z,5.20
2022-11-30T21:54:26.865Z,5.10
2022-11-30T21:56:54.061Z,5.10
2022-11-30T21:59:21.515Z,5.10
2022-11-30T22:01:48.597Z,5.10
2022-11-30T22:04:16.045Z,5.10
2022-11-30T22:06:43.677Z,5.10
2022-11-30T22:09:15.959Z,5.10
2022-11-30T22:11:45.427Z,5.10
2022-11-30T22:14:17.019Z,5.10
2022-11-30T22:16:45.224Z,5.10
2022-11-30T22:19:12.546Z,5.10
2022-11-30T22:21:40.774Z,5.10
2022-11-30T22:24:13.925Z,5.10
2022-11-30T22:26:43.828Z,5.10
2022-11-30T22:29:22.727Z,5.10
2022-11-30T22:31:52.153Z,5.10
2022-11-30T22:34:20.145Z,5.00
2022-11-30T22:36:48.309Z,5.00
2022-11-30T22:39:20.448Z,5.00
2022-11-30T22:41:54.615Z,5.00
2022-11-30T22:44:22.824Z,5.10
2022-11-30T22:47:02.005Z,5.00
2022-11-30T22:49:29.326Z,5.00
2022-11-30T22:51:56.593Z,5.00
2022-11-30T22:54:23.907Z,5.00
2022-11-30T22:56:51.122Z,5.00
2022-11-30T22:59:18.314Z,5.00
2022-11-30T23:01:48.256Z,5.00
2022-11-30T23:04:17.811Z,5.00
2022-11-30T23:06:46.408Z,4.90
2022-11-30T23:09:17.313Z,4.90
2022-11-30T23:11:44.813Z,4.90
2022-11-30T23:14:16.694Z,4.90
2022-11-30T23:16:45.341Z,4.90
2022-11-30T23:19:13.127Z,4.90
2022-11-30T23:21:42.888Z,4.90
2022-11-30T23:24:17.901Z,4.90
2022-11-30T23:26:45.700Z,4.90
2022-11-30T23:29:14.923Z,4.90
2022-11-30T23:31:43.390Z,4.80
2022-11-30T23:34:13.515Z,4.80
2022-11-30T23:36:40.949Z,4.90
2022-11-30T23:39:13.729Z,4.80
2022-11-30T23:41:41.474Z,4.80
2022-11-30T23:44:09.908Z,4.80
2022-11-30T23:46:37.586Z,4.80
2022-11-30T23:49:05.351Z,4.80
2022-11-30T23:51:32.569Z,4.80
2022-11-30T23:53:59.672Z,4.80
2022-11-30T23:56:26.801Z,4.80
2022-11-30T23:58:53.992Z,4.80
